sensor_id;sensor_type;location;lat;lon;timestamp;pressure;altitude;pressure_sealevel;temperature;humidity
54038;BME280;39954;48.844;9.726;2023-02-28T00:00:31;96682.00;;;-5.80;100.00
54038;BME280;39954;48.844;9.726;2023-02-28T00:01:36;96677.78;;;-5.80;100.00
54038;BME280;39954;48.844;9.726;2023-02-28T00:02:39;96684.63;;;-5.76;100.00
54038;BME280;39954;48.844;9.726;2023-02-28T00:03:43;96682.94;;;-5.77;100.00
54038;BME280;39954;48.844;9.726;2023-02-28T00:04:46;96680.41;;;-5.77;100.00
54038;BME280;39954;48.844;9.726;2023-02-28T00:05:54;96671.97;;;-5.74;100.00
54038;BME280;39954;48.844;9.726;2023-02-28T00:06:56;96676.19;;;-5.75;100.00
54038;BME280;39954;48.844;9.726;2023-02-28T00:08:04;96675.38;;;-5.74;100.00
54038;BME280;39954;48.844;9.726;2023-02-28T00:09:06;96671.97;;;-5.76;100.00
54038;BME280;39954;48.844;9.726;2023-02-28T00:10:13;96671.22;;;-5.70;100.00
54038;BME280;39954;48.844;9.726;2023-02-28T00:11:16;96673.69;;;-5.73;100.00
54038;BME280;39954;48.844;9.726;2023-02-28T00:12:21;96671.88;;;-5.80;100.00
54038;BME280;39954;48.844;9.726;2023-02-28T00:13:23;96673.66;;;-5.75;100.00
54038;BME280;39954;48.844;9.726;2023-02-28T00:14:30;96675.44;;;-5.69;100.00
54038;BME280;39954;48.844;9.726;2023-02-28T00:15:33;96666.91;;;-5.74;100.00
54038;BME280;39954;48.844;9.726;2023-02-28T00:16:38;96676.19;;;-5.75;100.00
54038;BME280;39954;48.844;9.726;2023-02-28T00:17:40;96668.59;;;-5.76;100.00
54038;BME280;39954;48.844;9.726;2023-02-28T00:18:45;96671.94;;;-5.77;100.00
54038;BME280;39954;48.844;9.726;2023-02-28T00:19:47;96665.22;;;-5.75;100.00
54038;BME280;39954;48.844;9.726;2023-02-28T00:20:52;96669.41;;;-5.79;100.00
54038;BME280;39954;48.844;9.726;2023-02-28T00:21:54;96672.78;;;-5.78;100.00
54038;BME280;39954;48.844;9.726;2023-02-28T00:22:59;96679.56;;;-5.76;100.00
54038;BME280;39954;48.844;9.726;2023-02-28T00:24:05;96675.31;;;-5.78;100.00
54038;BME280;39954;48.844;9.726;2023-02-28T00:25:12;96669.44;;;-5.76;100.00
54038;BME280;39954;48.844;9.726;2023-02-28T00:26:15;96671.09;;;-5.78;100.00
54038;BME280;39954;48.844;9.726;2023-02-28T00:27:22;96665.97;;;-5.81;100.00
54038;BME280;39954;48.844;9.726;2023-02-28T00:28:24;96658.38;;;-5.81;100.00
54038;BME280;39954;48.844;9.726;2023-02-28T00:29:29;96665.97;;;-5.81;100.00
54038;BME280;39954;48.844;9.726;2023-02-28T00:30:31;96666.03;;;-5.79;100.00
54038;BME280;39954;48.844;9.726;2023-02-28T00:31:36;96664.34;;;-5.79;100.00
54038;BME280;39954;48.844;9.726;2023-02-28T00:32:38;96667.66;;;-5.80;100.00
54038;BME280;39954;48.844;9.726;2023-02-28T00:33:43;96664.28;;;-5.82;100.00
54038;BME280;39954;48.844;9.726;2023-02-28T00:34:45;96668.44;;;-5.86;100.00
54038;BME280;39954;48.844;9.726;2023-02-28T00:35:50;96659.28;;;-5.79;100.00
54038;BME280;39954;48.844;9.726;2023-02-28T00:36:52;96667.78;;;-5.74;100.00
54038;BME280;39954;48.844;9.726;2023-02-28T00:37:57;96667.84;;;-5.71;100.00
54038;BME280;39954;48.844;9.726;2023-02-28T00:38:59;96662.78;;;-5.71;100.00
54038;BME280;39954;48.844;9.726;2023-02-28T00:40:08;96657.66;;;-5.74;100.00
54038;BME280;39954;48.844;9.726;2023-02-28T00:41:11;96668.66;;;-5.72;100.00
54038;BME280;39954;48.844;9.726;2023-02-28T00:42:15;96669.44;;;-5.74;100.00
54038;BME280;39954;48.844;9.726;2023-02-28T00:43:18;96670.28;;;-5.75;100.00
54038;BME280;39954;48.844;9.726;2023-02-28T00:44:22;96662.72;;;-5.74;100.00
54038;BME280;39954;48.844;9.726;2023-02-28T00:45:25;96664.38;;;-5.76;100.00
54038;BME280;39954;48.844;9.726;2023-02-28T00:46:30;96659.31;;;-5.74;100.00
54038;BME280;39954;48.844;9.726;2023-02-28T00:47:32;96671.19;;;-5.72;100.00
54038;BME280;39954;48.844;9.726;2023-02-28T00:48:37;96664.47;;;-5.71;100.00
54038;BME280;39954;48.844;9.726;2023-02-28T00:49:39;96660.19;;;-5.72;100.00
54038;BME280;39954;48.844;9.726;2023-02-28T00:50:44;96666.13;;;-5.72;100.00
54038;BME280;39954;48.844;9.726;2023-02-28T00:51:50;96667.94;;;-5.65;100.00
54038;BME280;39954;48.844;9.726;2023-02-28T00:52:55;96667.94;;;-5.65;100.00
54038;BME280;39954;48.844;9.726;2023-02-28T00:53:57;96661.22;;;-5.63;100.00
54038;BME280;39954;48.844;9.726;2023-02-28T00:55:02;96664.56;;;-5.64;100.00
54038;BME280;39954;48.844;9.726;2023-02-28T00:56:07;96661.25;;;-5.59;100.00
54038;BME280;39954;48.844;9.726;2023-02-28T00:57:12;96655.28;;;-5.63;100.00
54038;BME280;39954;48.844;9.726;2023-02-28T00:58:14;96662.91;;;-5.62;100.00
54038;BME280;39954;48.844;9.726;2023-02-28T00:59:19;96663.75;;;-5.63;100.00
54038;BME280;39954;48.844;9.726;2023-02-28T01:00:22;96661.16;;;-5.66;100.00
54038;BME280;39954;48.844;9.726;2023-02-28T01:01:27;96663.63;;;-5.69;100.00
54038;BME280;39954;48.844;9.726;2023-02-28T01:02:29;96661.16;;;-5.66;100.00
54038;BME280;39954;48.844;9.726;2023-02-28T01:03:34;96654.38;;;-5.67;100.00
54038;BME280;39954;48.844;9.726;2023-02-28T01:04:36;96659.41;;;-5.70;100.00
54038;BME280;39954;48.844;9.726;2023-02-28T01:05:41;96662.78;;;-5.71;100.00
54038;BME280;39954;48.844;9.726;2023-02-28T01:06:44;96661.06;;;-5.72;100.00
54038;BME280;39954;48.844;9.726;2023-02-28T01:07:48;96659.34;;;-5.73;100.00
54038;BME280;39954;48.844;9.726;2023-02-28T01:08:50;96661.88;;;-5.73;100.00
54038;BME280;39954;48.844;9.726;2023-02-28T01:09:55;96656.88;;;-5.71;100.00
54038;BME280;39954;48.844;9.726;2023-02-28T01:10:57;96661.06;;;-5.72;100.00
54038;BME280;39954;48.844;9.726;2023-02-28T01:12:06;96657.66;;;-5.74;100.00
54038;BME280;39954;48.844;9.726;2023-02-28T01:13:09;96659.31;;;-5.76;100.00
54038;BME280;39954;48.844;9.726;2023-02-28T01:14:15;96656.75;;;-5.77;100.00
54038;BME280;39954;48.844;9.726;2023-02-28T01:15:17;96659.28;;;-5.77;100.00
54038;BME280;39954;48.844;9.726;2023-02-28T01:16:22;96651.66;;;-5.79;100.00
54038;BME280;39954;48.844;9.726;2023-02-28T01:17:24;96652.53;;;-5.78;100.00
54038;BME280;39954;48.844;9.726;2023-02-28T01:18:29;96646.59;;;-5.79;100.00
54038;BME280;39954;48.844;9.726;2023-02-28T01:19:32;96653.41;;;-5.75;100.00
54038;BME280;39954;48.844;9.726;2023-02-28T01:20:37;96656.78;;;-5.76;100.00
54038;BME280;39954;48.844;9.726;2023-02-28T01:21:40;96652.66;;;-5.71;100.00
54038;BME280;39954;48.844;9.726;2023-02-28T01:22:45;96650.91;;;-5.73;100.00
54038;BME280;39954;48.844;9.726;2023-02-28T01:23:47;96654.34;;;-5.70;100.00
54038;BME280;39954;48.844;9.726;2023-02-28T01:24:54;96648.50;;;-5.66;100.00
54038;BME280;39954;48.844;9.726;2023-02-28T01:26:04;96649.41;;;-5.60;100.00
54038;BME280;39954;48.844;9.726;2023-02-28T01:27:12;96649.41;;;-5.60;100.00
54038;BME280;39954;48.844;9.726;2023-02-28T01:28:14;96650.19;;;-5.65;100.00
54038;BME280;39954;48.844;9.726;2023-02-28T01:29:18;96656.03;;;-5.69;100.00
54038;BME280;39954;48.844;9.726;2023-02-28T01:30:21;96653.53;;;-5.67;100.00
54038;BME280;39954;48.844;9.726;2023-02-28T01:31:25;96656.00;;;-5.72;100.00
54038;BME280;39954;48.844;9.726;2023-02-28T01:32:29;96660.19;;;-5.74;100.00
54038;BME280;39954;48.844;9.726;2023-02-28T01:33:34;96656.03;;;-5.69;100.00
54038;BME280;39954;48.844;9.726;2023-02-28T01:34:36;96659.44;;;-5.67;100.00
54038;BME280;39954;48.844;9.726;2023-02-28T01:35:41;96650.16;;;-5.66;100.00
54038;BME280;39954;48.844;9.726;2023-02-28T01:36:43;96655.22;;;-5.68;100.00
54038;BME280;39954;48.844;9.726;2023-02-28T01:37:48;96652.69;;;-5.68;100.00
54038;BME280;39954;48.844;9.726;2023-02-28T01:38:50;96656.09;;;-5.66;100.00
54038;BME280;39954;48.844;9.726;2023-02-28T01:39:55;96657.78;;;-5.65;100.00
54038;BME280;39954;48.844;9.726;2023-02-28T01:42:39;96648.56;;;-5.61;100.00
54038;BME280;39954;48.844;9.726;2023-02-28T01:44:03;96651.03;;;-5.66;100.00
54038;BME280;39954;48.844;9.726;2023-02-28T01:45:21;96655.28;;;-5.63;100.00
54038;BME280;39954;48.844;9.726;2023-02-28T01:46:24;96656.06;;;-5.67;100.00
54038;BME280;39954;48.844;9.726;2023-02-28T01:47:32;96641.72;;;-5.67;100.00
54038;BME280;39954;48.844;9.726;2023-02-28T01:48:40;96651.03;;;-5.66;100.00
54038;BME280;39954;48.844;9.726;2023-02-28T01:49:49;96651.84;;;-5.68;100.00
54038;BME280;39954;48.844;9.726;2023-02-28T01:51:00;96647.63;;;-5.66;100.00
54038;BME280;39954;48.844;9.726;2023-02-28T01:52:09;96641.75;;;-5.65;100.00
54038;BME280;39954;48.844;9.726;2023-02-28T01:53:24;96646.88;;;-5.62;100.00
54038;BME280;39954;48.844;9.726;2023-02-28T01:54:34;96646.03;;;-5.63;100.00
54038;BME280;39954;48.844;9.726;2023-02-28T01:55:39;96653.56;;;-5.66;100.00
54038;BME280;39954;48.844;9.726;2023-02-28T01:56:51;96646.03;;;-5.63;100.00
54038;BME280;39954;48.844;9.726;2023-02-28T01:58:00;96644.28;;;-5.64;100.00
54038;BME280;39954;48.844;9.726;2023-02-28T01:59:11;96646.81;;;-5.64;100.00
54038;BME280;39954;48.844;9.726;2023-02-28T02:00:16;96642.69;;;-5.58;100.00
54038;BME280;39954;48.844;9.726;2023-02-28T02:01:24;96645.25;;;-5.57;100.00
54038;BME280;39954;48.844;9.726;2023-02-28T02:02:31;96645.22;;;-5.58;100.00
54038;BME280;39954;48.844;9.726;2023-02-28T02:03:41;96641.03;;;-5.56;100.00
54038;BME280;39954;48.844;9.726;2023-02-28T02:04:57;96646.09;;;-5.56;100.00
54038;BME280;39954;48.844;9.726;2023-02-28T02:06:13;96639.31;;;-5.57;100.00
54038;BME280;39954;48.844;9.726;2023-02-28T02:07:19;96641.84;;;-5.59;100.00
54038;BME280;39954;48.844;9.726;2023-02-28T02:08:28;96638.44;;;-5.61;100.00
54038;BME280;39954;48.844;9.726;2023-02-28T02:09:36;96634.25;;;-5.59;100.00
54038;BME280;39954;48.844;9.726;2023-02-28T02:10:44;96641.94;;;-5.54;100.00
54038;BME280;39954;48.844;9.726;2023-02-28T02:11:48;96639.28;;;-5.60;100.00
54038;BME280;39954;48.844;9.726;2023-02-28T02:13:13;96637.59;;;-5.62;100.00
54038;BME280;39954;48.844;9.726;2023-02-28T02:14:31;96634.97;;;-5.66;100.00
54038;BME280;39954;48.844;9.726;2023-02-28T02:15:46;96630.75;;;-5.67;100.00
54038;BME280;39954;48.844;9.726;2023-02-28T02:17:09;96630.75;;;-5.67;100.00
54038;BME280;39954;48.844;9.726;2023-02-28T02:18:25;96636.66;;;-5.68;100.00
54038;BME280;39954;48.844;9.726;2023-02-28T02:19:58;96627.38;;;-5.68;100.00
54038;BME280;39954;48.844;9.726;2023-02-28T02:21:44;96628.19;;;-5.69;100.00
54038;BME280;39954;48.844;9.726;2023-02-28T02:23:12;96642.47;;;-5.74;100.00
54038;BME280;39954;48.844;9.726;2023-02-28T02:25:55;96627.97;;;-5.84;100.00
54038;BME280;39954;48.844;9.726;2023-02-28T02:27:16;96630.50;;;-5.84;100.00
54038;BME280;39954;48.844;9.726;2023-02-28T02:28:54;96632.94;;;-5.89;100.00
54038;BME280;39954;48.844;9.726;2023-02-28T02:30:37;96625.28;;;-5.92;100.00
54038;BME280;39954;48.844;9.726;2023-02-28T02:31:57;96633.78;;;-5.88;100.00
54038;BME280;39954;48.844;9.726;2023-02-28T02:35:16;96625.34;;;-5.90;100.00
54038;BME280;39954;48.844;9.726;2023-02-28T02:36:42;96620.31;;;-5.87;100.00
54038;BME280;39954;48.844;9.726;2023-02-28T02:37:49;96624.50;;;-5.89;100.00
54038;BME280;39954;48.844;9.726;2023-02-28T02:39:02;96621.97;;;-5.89;100.00
54038;BME280;39954;48.844;9.726;2023-02-28T02:40:32;96619.44;;;-5.91;100.00
54038;BME280;39954;48.844;9.726;2023-02-28T02:41:49;96619.47;;;-5.88;100.00
54038;BME280;39954;48.844;9.726;2023-02-28T02:43:06;96625.34;;;-5.90;100.00
54038;BME280;39954;48.844;9.726;2023-02-28T02:44:30;96621.22;;;-5.83;100.00
54038;BME280;39954;48.844;9.726;2023-02-28T02:45:39;96614.47;;;-5.85;100.00
54038;BME280;39954;48.844;9.726;2023-02-28T02:46:50;96622.84;;;-5.86;100.00
54038;BME280;39954;48.844;9.726;2023-02-28T02:48:10;96623.66;;;-5.88;100.00
54038;BME280;39954;48.844;9.726;2023-02-28T02:49:21;96613.53;;;-5.88;100.00
54038;BME280;39954;48.844;9.726;2023-02-28T02:50:31;96625.44;;;-5.82;100.00
54038;BME280;39954;48.844;9.726;2023-02-28T02:51:41;96614.47;;;-5.83;100.00
54038;BME280;39954;48.844;9.726;2023-02-28T02:52:50;96617.03;;;-5.80;100.00
54038;BME280;39954;48.844;9.726;2023-02-28T02:54:02;96618.59;;;-5.88;100.00
54038;BME280;39954;48.844;9.726;2023-02-28T02:55:13;96621.13;;;-5.90;100.00
54038;BME280;39954;48.844;9.726;2023-02-28T02:56:23;96616.84;;;-5.92;100.00
54038;BME280;39954;48.844;9.726;2023-02-28T02:57:31;96626.16;;;-5.91;100.00
54038;BME280;39954;48.844;9.726;2023-02-28T02:58:41;96616.00;;;-5.93;100.00
54038;BME280;39954;48.844;9.726;2023-02-28T02:59:50;96623.59;;;-5.94;100.00
54038;BME280;39954;48.844;9.726;2023-02-28T03:00:57;96626.97;;;-5.95;100.00
54038;BME280;39954;48.844;9.726;2023-02-28T03:02:07;96619.44;;;-5.91;100.00
54038;BME280;39954;48.844;9.726;2023-02-28T03:03:12;96629.50;;;-5.92;100.00
54038;BME280;39954;48.844;9.726;2023-02-28T03:04:22;96621.91;;;-5.95;100.00
54038;BME280;39954;48.844;9.726;2023-02-28T03:05:34;96623.63;;;-5.91;100.00
54038;BME280;39954;48.844;9.726;2023-02-28T03:06:43;96617.75;;;-5.89;100.00
54038;BME280;39954;48.844;9.726;2023-02-28T03:07:47;96621.13;;;-5.88;100.00
54038;BME280;39954;48.844;9.726;2023-02-28T03:08:53;96625.38;;;-5.87;100.00
54038;BME280;39954;48.844;9.726;2023-02-28T03:09:58;96620.31;;;-5.87;100.00
54038;BME280;39954;48.844;9.726;2023-02-28T03:11:06;96621.22;;;-5.83;100.00
54038;BME280;39954;48.844;9.726;2023-02-28T03:12:18;96613.75;;;-5.76;100.00
54038;BME280;39954;48.844;9.726;2023-02-28T03:15:13;96617.16;;;-5.72;100.00
54038;BME280;39954;48.844;9.726;2023-02-28T03:18:07;96620.69;;;-5.63;100.00
54038;BME280;39954;48.844;9.726;2023-02-28T03:19:29;96617.41;;;-5.55;100.00
54038;BME280;39954;48.844;9.726;2023-02-28T03:20:50;96615.75;;;-5.53;100.00
54038;BME280;39954;48.844;9.726;2023-02-28T03:22:11;96615.78;;;-5.50;100.00
54038;BME280;39954;48.844;9.726;2023-02-28T03:23:26;96619.97;;;-5.54;100.00
54038;BME280;39954;48.844;9.726;2023-02-28T03:24:36;96614.88;;;-5.55;100.00
54038;BME280;39954;48.844;9.726;2023-02-28T03:25:55;96612.38;;;-5.52;100.00
54038;BME280;39954;48.844;9.726;2023-02-28T03:27:04;96616.59;;;-5.54;100.00
54038;BME280;39954;48.844;9.726;2023-02-28T03:28:25;96616.59;;;-5.53;100.00
54038;BME280;39954;48.844;9.726;2023-02-28T03:29:39;96612.47;;;-5.48;100.00
54038;BME280;39954;48.844;9.726;2023-02-28T03:30:48;96615.03;;;-5.45;100.00
54038;BME280;39954;48.844;9.726;2023-02-28T03:31:59;96620.13;;;-5.43;100.00
54038;BME280;39954;48.844;9.726;2023-02-28T03:33:08;96615.09;;;-5.40;100.00
54038;BME280;39954;48.844;9.726;2023-02-28T03:34:24;96624.34;;;-5.42;100.00
54038;BME280;39954;48.844;9.726;2023-02-28T03:35:32;96620.97;;;-5.41;100.00
54038;BME280;39954;48.844;9.726;2023-02-28T03:36:47;96612.53;;;-5.43;100.00
54038;BME280;39954;48.844;9.726;2023-02-28T03:38:00;96618.47;;;-5.38;100.00
54038;BME280;39954;48.844;9.726;2023-02-28T03:39:13;96614.38;;;-5.30;100.00
54038;BME280;39954;48.844;9.726;2023-02-28T03:40:20;96623.66;;;-5.32;100.00
54038;BME280;39954;48.844;9.726;2023-02-28T03:41:38;96622.81;;;-5.29;100.00
54038;BME280;39954;48.844;9.726;2023-02-28T03:42:49;96619.56;;;-5.22;100.00
54038;BME280;39954;48.844;9.726;2023-02-28T03:44:04;96614.41;;;-5.27;100.00
54038;BME280;39954;48.844;9.726;2023-02-28T03:45:15;96611.94;;;-5.24;100.00
54038;BME280;39954;48.844;9.726;2023-02-28T03:46:24;96613.66;;;-5.21;100.00
54038;BME280;39954;48.844;9.726;2023-02-28T03:47:33;96617.91;;;-5.20;100.00
54038;BME280;39954;48.844;9.726;2023-02-28T03:48:44;96617.88;;;-5.22;100.00
54038;BME280;39954;48.844;9.726;2023-02-28T03:49:54;96618.81;;;-5.15;100.00
54038;BME280;39954;48.844;9.726;2023-02-28T03:51:05;96611.25;;;-5.10;100.00
54038;BME280;39954;48.844;9.726;2023-02-28T03:52:17;96613.03;;;-5.03;100.00
54038;BME280;39954;48.844;9.726;2023-02-28T03:53:25;96618.94;;;-5.04;100.00
54038;BME280;39954;48.844;9.726;2023-02-28T03:54:36;96622.31;;;-5.05;100.00
54038;BME280;39954;48.844;9.726;2023-02-28T03:55:44;96612.16;;;-5.05;100.00
54038;BME280;39954;48.844;9.726;2023-02-28T03:56:53;96613.94;;;-4.98;100.00
54038;BME280;39954;48.844;9.726;2023-02-28T03:58:05;96613.09;;;-4.97;100.00
54038;BME280;39954;48.844;9.726;2023-02-28T03:59:15;96616.53;;;-4.95;100.00
54038;BME280;39954;48.844;9.726;2023-02-28T04:00:27;96617.34;;;-4.96;100.00
54038;BME280;39954;48.844;9.726;2023-02-28T04:01:35;96626.66;;;-4.93;100.00
54038;BME280;39954;48.844;9.726;2023-02-28T04:02:43;96621.66;;;-4.89;100.00
54038;BME280;39954;48.844;9.726;2023-02-28T04:03:46;96620.84;;;-4.85;100.00
54038;BME280;39954;48.844;9.726;2023-02-28T04:04:52;96631.06;;;-4.80;100.00
54038;BME280;39954;48.844;9.726;2023-02-28T04:05:57;96615.84;;;-4.80;100.00
54038;BME280;39954;48.844;9.726;2023-02-28T04:07:09;96623.47;;;-4.79;100.00
54038;BME280;39954;48.844;9.726;2023-02-28T04:08:18;96621.75;;;-4.80;100.00
54038;BME280;39954;48.844;9.726;2023-02-28T04:09:27;96618.44;;;-4.76;100.00
54038;BME280;39954;48.844;9.726;2023-02-28T04:10:30;96625.19;;;-4.75;100.00
54038;BME280;39954;48.844;9.726;2023-02-28T04:11:48;96623.53;;;-4.73;100.00
54038;BME280;39954;48.844;9.726;2023-02-28T04:12:53;96617.63;;;-4.72;100.00
54038;BME280;39954;48.844;9.726;2023-02-28T04:14:08;96620.13;;;-4.75;100.00
54038;BME280;39954;48.844;9.726;2023-02-28T04:15:11;96623.53;;;-4.73;100.00
54038;BME280;39954;48.844;9.726;2023-02-28T04:16:16;96623.53;;;-4.73;100.00
54038;BME280;39954;48.844;9.726;2023-02-28T04:17:34;96629.53;;;-4.66;100.00
54038;BME280;39954;48.844;9.726;2023-02-28T04:18:49;96624.50;;;-4.60;100.00
54038;BME280;39954;48.844;9.726;2023-02-28T04:19:51;96627.06;;;-4.61;100.00
54038;BME280;39954;48.844;9.726;2023-02-28T04:21:00;96627.03;;;-4.64;100.00
54038;BME280;39954;48.844;9.726;2023-02-28T04:22:03;96624.50;;;-4.60;100.00
54038;BME280;39954;48.844;9.726;2023-02-28T04:23:08;96627.91;;;-4.61;100.00
54038;BME280;39954;48.844;9.726;2023-02-28T04:24:28;96630.47;;;-4.59;100.00
54038;BME280;39954;48.844;9.726;2023-02-28T04:25:33;96622.84;;;-4.58;100.00
54038;BME280;39954;48.844;9.726;2023-02-28T04:26:37;96620.31;;;-4.59;100.00
54038;BME280;39954;48.844;9.726;2023-02-28T04:27:42;96625.31;;;-4.62;100.00
54038;BME280;39954;48.844;9.726;2023-02-28T04:28:48;96622.00;;;-4.58;100.00
54038;BME280;39954;48.844;9.726;2023-02-28T04:29:55;96625.44;;;-4.53;100.00
54038;BME280;39954;48.844;9.726;2023-02-28T04:30:59;96623.69;;;-4.57;100.00
54038;BME280;39954;48.844;9.726;2023-02-28T04:32:05;96625.44;;;-4.52;100.00
54038;BME280;39954;48.844;9.726;2023-02-28T04:33:10;96611.91;;;-4.52;100.00
54038;BME280;39954;48.844;9.726;2023-02-28T04:34:15;96630.53;;;-4.53;100.00
54038;BME280;39954;48.844;9.726;2023-02-28T04:35:18;96628.81;;;-4.54;100.00
54038;BME280;39954;48.844;9.726;2023-02-28T04:36:24;96622.06;;;-4.52;100.00
54038;BME280;39954;48.844;9.726;2023-02-28T04:37:27;96622.06;;;-4.52;100.00
54038;BME280;39954;48.844;9.726;2023-02-28T04:38:33;96623.81;;;-4.48;100.00
54038;BME280;39954;48.844;9.726;2023-02-28T04:39:44;96630.56;;;-4.50;100.00
54038;BME280;39954;48.844;9.726;2023-02-28T04:40:49;96618.69;;;-4.53;100.00
54038;BME280;39954;48.844;9.726;2023-02-28T04:41:52;96627.16;;;-4.49;100.00
54038;BME280;39954;48.844;9.726;2023-02-28T04:42:58;96633.97;;;-4.48;100.00
54038;BME280;39954;48.844;9.726;2023-02-28T04:44:00;96622.09;;;-4.49;100.00
54038;BME280;39954;48.844;9.726;2023-02-28T04:45:07;96626.38;;;-4.45;100.00
54038;BME280;39954;48.844;9.726;2023-02-28T04:46:15;96622.97;;;-4.47;100.00
54038;BME280;39954;48.844;9.726;2023-02-28T04:47:20;96625.47;;;-4.50;100.00
54038;BME280;39954;48.844;9.726;2023-02-28T04:48:23;96628.88;;;-4.50;100.00
54038;BME280;39954;48.844;9.726;2023-02-28T04:49:28;96628.84;;;-4.51;100.00
54038;BME280;39954;48.844;9.726;2023-02-28T04:50:31;96629.72;;;-4.51;100.00
54038;BME280;39954;48.844;9.726;2023-02-28T04:51:36;96627.13;;;-4.52;100.00
54038;BME280;39954;48.844;9.726;2023-02-28T04:52:41;96624.66;;;-4.46;100.00
54038;BME280;39954;48.844;9.726;2023-02-28T04:53:47;96627.19;;;-4.46;100.00
54038;BME280;39954;48.844;9.726;2023-02-28T04:54:53;96621.31;;;-4.43;100.00
54038;BME280;39954;48.844;9.726;2023-02-28T04:56:05;96622.94;;;-4.48;100.00
54038;BME280;39954;48.844;9.726;2023-02-28T04:57:25;96629.75;;;-4.44;100.00
54038;BME280;39954;48.844;9.726;2023-02-28T04:58:30;96632.28;;;-4.47;100.00
54038;BME280;39954;48.844;9.726;2023-02-28T04:59:39;96628.00;;;-4.48;100.00
54038;BME280;39954;48.844;9.726;2023-02-28T05:00:42;96631.50;;;-4.42;100.00
54038;BME280;39954;48.844;9.726;2023-02-28T05:01:53;96636.53;;;-4.45;100.00
54038;BME280;39954;48.844;9.726;2023-02-28T05:02:57;96636.47;;;-4.50;100.00
54038;BME280;39954;48.844;9.726;2023-02-28T05:04:04;96633.97;;;-4.48;100.00
54038;BME280;39954;48.844;9.726;2023-02-28T05:05:09;96635.66;;;-4.47;100.00
54038;BME280;39954;48.844;9.726;2023-02-28T05:06:27;96629.78;;;-4.41;100.00
54038;BME280;39954;48.844;9.726;2023-02-28T05:07:31;96628.94;;;-4.42;100.00
54038;BME280;39954;48.844;9.726;2023-02-28T05:08:37;96633.09;;;-4.48;100.00
54038;BME280;39954;48.844;9.726;2023-02-28T05:09:43;96637.38;;;-4.44;100.00
54038;BME280;39954;48.844;9.726;2023-02-28T05:10:50;96630.59;;;-4.47;100.00
54038;BME280;39954;48.844;9.726;2023-02-28T05:11:54;96630.56;;;-4.50;100.00
54038;BME280;39954;48.844;9.726;2023-02-28T05:13:00;96629.69;;;-4.54;100.00
54038;BME280;39954;48.844;9.726;2023-02-28T05:14:03;96638.97;;;-4.53;100.00
54038;BME280;39954;48.844;9.726;2023-02-28T05:15:13;96630.59;;;-4.47;100.00
54038;BME280;39954;48.844;9.726;2023-02-28T05:16:16;96637.31;;;-4.49;100.00
54038;BME280;39954;48.844;9.726;2023-02-28T05:17:30;96618.75;;;-4.48;100.00
54038;BME280;39954;48.844;9.726;2023-02-28T05:18:34;96622.91;;;-4.52;100.00
54038;BME280;39954;48.844;9.726;2023-02-28T05:19:43;96629.72;;;-4.46;100.00
54038;BME280;39954;48.844;9.726;2023-02-28T05:20:49;96632.28;;;-4.46;100.00
54038;BME280;39954;48.844;9.726;2023-02-28T05:21:55;96635.75;;;-4.39;100.00
54038;BME280;39954;48.844;9.726;2023-02-28T05:22:59;96630.56;;;-4.45;100.00
54038;BME280;39954;48.844;9.726;2023-02-28T05:24:10;96628.91;;;-4.45;100.00
54038;BME280;39954;48.844;9.726;2023-02-28T05:25:19;96621.28;;;-4.48;100.00
54038;BME280;39954;48.844;9.726;2023-02-28T05:26:36;96627.22;;;-4.43;100.00
54038;BME280;39954;48.844;9.726;2023-02-28T05:27:46;96628.88;;;-4.48;100.00
54038;BME280;39954;48.844;9.726;2023-02-28T05:28:53;96633.16;;;-4.44;100.00
54038;BME280;39954;48.844;9.726;2023-02-28T05:29:56;96632.28;;;-4.46;100.00
54038;BME280;39954;48.844;9.726;2023-02-28T05:31:02;96628.06;;;-4.44;100.00
54038;BME280;39954;48.844;9.726;2023-02-28T05:32:04;96628.91;;;-4.45;100.00
54038;BME280;39954;48.844;9.726;2023-02-28T05:33:11;96628.84;;;-4.51;100.00
54038;BME280;39954;48.844;9.726;2023-02-28T05:34:14;96632.31;;;-4.43;100.00
54038;BME280;39954;48.844;9.726;2023-02-28T05:35:19;96634.00;;;-4.45;100.00
54038;BME280;39954;48.844;9.726;2023-02-28T05:36:23;96631.44;;;-4.48;100.00
54038;BME280;39954;48.844;9.726;2023-02-28T05:37:29;96630.53;;;-4.53;100.00
54038;BME280;39954;48.844;9.726;2023-02-28T05:38:31;96632.22;;;-4.52;100.00
54038;BME280;39954;48.844;9.726;2023-02-28T05:39:39;96638.16;;;-4.50;100.00
54038;BME280;39954;48.844;9.726;2023-02-28T05:40:46;96640.66;;;-4.52;100.00
54038;BME280;39954;48.844;9.726;2023-02-28T05:41:52;96632.25;;;-4.49;100.00
54038;BME280;39954;48.844;9.726;2023-02-28T05:43:01;96632.28;;;-4.46;100.00
54038;BME280;39954;48.844;9.726;2023-02-28T05:44:06;96635.63;;;-4.50;100.00
54038;BME280;39954;48.844;9.726;2023-02-28T05:45:10;96637.28;;;-4.54;100.00
54038;BME280;39954;48.844;9.726;2023-02-28T05:46:17;96634.78;;;-4.51;100.00
54038;BME280;39954;48.844;9.726;2023-02-28T05:47:19;96641.50;;;-4.53;100.00
54038;BME280;39954;48.844;9.726;2023-02-28T05:48:24;96640.69;;;-4.50;100.00
54038;BME280;39954;48.844;9.726;2023-02-28T05:49:28;96637.34;;;-4.46;100.00
54038;BME280;39954;48.844;9.726;2023-02-28T05:50:43;96634.81;;;-4.46;100.00
54038;BME280;39954;48.844;9.726;2023-02-28T05:51:49;96635.66;;;-4.47;100.00
54038;BME280;39954;48.844;9.726;2023-02-28T05:52:54;96640.69;;;-4.48;100.00
54038;BME280;39954;48.844;9.726;2023-02-28T05:53:59;96639.09;;;-4.40;100.00
54038;BME280;39954;48.844;9.726;2023-02-28T05:55:06;96643.28;;;-4.44;100.00
54038;BME280;39954;48.844;9.726;2023-02-28T05:56:09;96636.50;;;-4.48;100.00
54038;BME280;39954;48.844;9.726;2023-02-28T05:57:21;96640.72;;;-4.47;100.00
54038;BME280;39954;48.844;9.726;2023-02-28T05:58:37;96632.28;;;-4.46;100.00
54038;BME280;39954;48.844;9.726;2023-02-28T05:59:43;96635.63;;;-4.50;100.00
54038;BME280;39954;48.844;9.726;2023-02-28T06:00:46;96637.34;;;-4.46;100.00
54038;BME280;39954;48.844;9.726;2023-02-28T06:01:51;96638.13;;;-4.52;100.00
54038;BME280;39954;48.844;9.726;2023-02-28T06:02:55;96642.38;;;-4.49;100.00
54038;BME280;39954;48.844;9.726;2023-02-28T06:04:06;96637.31;;;-4.51;100.00
54038;BME280;39954;48.844;9.726;2023-02-28T06:05:26;96640.69;;;-4.48;100.00